sensor_id;sensor_type;location;lat;lon;timestamp;P1;durP1;ratioP1;P2;durP2;ratioP2
9160;SDS011;4615;51.340;8.288;2023-08-01T00:01:33;1.80;;;1.20;;
9160;SDS011;4615;51.340;8.288;2023-08-01T00:03:59;1.42;;;1.20;;
9160;SDS011;4615;51.340;8.288;2023-08-01T00:06:25;1.20;;;1.10;;
9160;SDS011;4615;51.340;8.288;2023-08-01T00:08:53;1.50;;;1.23;;
9160;SDS011;4615;51.340;8.288;2023-08-01T00:11:19;1.88;;;1.25;;
9160;SDS011;4615;51.340;8.288;2023-08-01T00:13:48;2.15;;;1.35;;
9160;SDS011;4615;51.340;8.288;2023-08-01T00:16:15;1.80;;;1.15;;
9160;SDS011;4615;51.340;8.288;2023-08-01T00:18:41;1.50;;;1.17;;
9160;SDS011;4615;51.340;8.288;2023-08-01T00:21:08;1.60;;;1.00;;
9160;SDS011;4615;51.340;8.288;2023-08-01T00:23:35;1.50;;;1.30;;
9160;SDS011;4615;51.340;8.288;2023-08-01T00:26:03;1.20;;;1.10;;
9160;SDS011;4615;51.340;8.288;2023-08-01T00:28:29;1.20;;;1.10;;
9160;SDS011;4615;51.340;8.288;2023-08-01T00:31:01;1.80;;;1.10;;
9160;SDS011;4615;51.340;8.288;2023-08-01T00:33:27;1.33;;;1.20;;
9160;SDS011;4615;51.340;8.288;2023-08-01T00:35:54;1.38;;;1.23;;
9160;SDS011;4615;51.340;8.288;2023-08-01T00:38:20;1.20;;;1.10;;
9160;SDS011;4615;51.340;8.288;2023-08-01T00:40:46;2.00;;;1.40;;
9160;SDS011;4615;51.340;8.288;2023-08-01T00:43:14;1.88;;;1.30;;
9160;SDS011;4615;51.340;8.288;2023-08-01T00:45:41;1.73;;;1.40;;
9160;SDS011;4615;51.340;8.288;2023-08-01T00:48:07;3.10;;;1.37;;
9160;SDS011;4615;51.340;8.288;2023-08-01T00:50:34;1.50;;;1.20;;
9160;SDS011;4615;51.340;8.288;2023-08-01T00:53:00;2.13;;;1.27;;
9160;SDS011;4615;51.340;8.288;2023-08-01T00:55:27;1.20;;;1.10;;
9160;SDS011;4615;51.340;8.288;2023-08-01T00:57:55;1.50;;;1.20;;
9160;SDS011;4615;51.340;8.288;2023-08-01T01:00:23;2.17;;;1.30;;
9160;SDS011;4615;51.340;8.288;2023-08-01T01:02:49;2.13;;;1.20;;
9160;SDS011;4615;51.340;8.288;2023-08-01T01:05:15;2.83;;;1.30;;
9160;SDS011;4615;51.340;8.288;2023-08-01T01:07:42;1.63;;;1.30;;
9160;SDS011;4615;51.340;8.288;2023-08-01T01:10:09;1.88;;;1.20;;
9160;SDS011;4615;51.340;8.288;2023-08-01T01:12:36;2.40;;;1.48;;
9160;SDS011;4615;51.340;8.288;2023-08-01T01:15:02;1.52;;;1.23;;
9160;SDS011;4615;51.340;8.288;2023-08-01T01:17:31;1.35;;;1.20;;
9160;SDS011;4615;51.340;8.288;2023-08-01T01:19:58;1.00;;;1.00;;
9160;SDS011;4615;51.340;8.288;2023-08-01T01:22:26;3.28;;;1.17;;
9160;SDS011;4615;51.340;8.288;2023-08-01T01:24:53;1.52;;;1.10;;
9160;SDS011;4615;51.340;8.288;2023-08-01T01:27:21;1.67;;;1.20;;
9160;SDS011;4615;51.340;8.288;2023-08-01T01:29:47;1.13;;;1.00;;
9160;SDS011;4615;51.340;8.288;2023-08-01T01:32:14;0.85;;;0.85;;
9160;SDS011;4615;51.340;8.288;2023-08-01T01:34:41;1.10;;;1.00;;
9160;SDS011;4615;51.340;8.288;2023-08-01T01:37:07;1.70;;;0.80;;
9160;SDS011;4615;51.340;8.288;2023-08-01T01:39:35;0.90;;;0.82;;
9160;SDS011;4615;51.340;8.288;2023-08-01T01:42:01;0.82;;;0.82;;
9160;SDS011;4615;51.340;8.288;2023-08-01T01:44:28;0.80;;;0.80;;
9160;SDS011;4615;51.340;8.288;2023-08-01T01:46:54;1.35;;;0.80;;
9160;SDS011;4615;51.340;8.288;2023-08-01T01:49:20;0.90;;;0.90;;
9160;SDS011;4615;51.340;8.288;2023-08-01T01:51:47;2.10;;;0.90;;
9160;SDS011;4615;51.340;8.288;2023-08-01T01:54:13;1.48;;;0.90;;
9160;SDS011;4615;51.340;8.288;2023-08-01T01:56:41;0.60;;;0.60;;
9160;SDS011;4615;51.340;8.288;2023-08-01T01:59:07;1.03;;;0.80;;
9160;SDS011;4615;51.340;8.288;2023-08-01T02:01:33;1.58;;;0.75;;
9160;SDS011;4615;51.340;8.288;2023-08-01T02:04:00;0.88;;;0.80;;
9160;SDS011;4615;51.340;8.288;2023-08-01T02:06:26;0.70;;;0.57;;
9160;SDS011;4615;51.340;8.288;2023-08-01T02:08:53;1.10;;;0.80;;
9160;SDS011;4615;51.340;8.288;2023-08-01T02:11:19;0.60;;;0.60;;
9160;SDS011;4615;51.340;8.288;2023-08-01T02:13:47;2.03;;;0.55;;
9160;SDS011;4615;51.340;8.288;2023-08-01T02:16:13;1.15;;;0.60;;
9160;SDS011;4615;51.340;8.288;2023-08-01T02:18:39;0.50;;;0.50;;
9160;SDS011;4615;51.340;8.288;2023-08-01T02:21:06;0.65;;;0.50;;
9160;SDS011;4615;51.340;8.288;2023-08-01T02:23:32;0.70;;;0.70;;
9160;SDS011;4615;51.340;8.288;2023-08-01T02:26:01;0.60;;;0.60;;
9160;SDS011;4615;51.340;8.288;2023-08-01T02:28:27;0.80;;;0.80;;
9160;SDS011;4615;51.340;8.288;2023-08-01T02:30:55;1.48;;;0.70;;
9160;SDS011;4615;51.340;8.288;2023-08-01T02:33:21;1.05;;;0.57;;
9160;SDS011;4615;51.340;8.288;2023-08-01T02:35:48;0.40;;;0.40;;
9160;SDS011;4615;51.340;8.288;2023-08-01T02:38:14;0.82;;;0.73;;
9160;SDS011;4615;51.340;8.288;2023-08-01T02:40:41;0.55;;;0.55;;
9160;SDS011;4615;51.340;8.288;2023-08-01T02:43:07;1.00;;;0.50;;
9160;SDS011;4615;51.340;8.288;2023-08-01T02:45:34;0.40;;;0.40;;
9160;SDS011;4615;51.340;8.288;2023-08-01T02:48:02;0.43;;;0.43;;
9160;SDS011;4615;51.340;8.288;2023-08-01T02:50:28;1.08;;;0.60;;
9160;SDS011;4615;51.340;8.288;2023-08-01T02:52:54;0.57;;;0.57;;
9160;SDS011;4615;51.340;8.288;2023-08-01T02:55:21;0.90;;;0.50;;
9160;SDS011;4615;51.340;8.288;2023-08-01T02:57:47;0.70;;;0.50;;
9160;SDS011;4615;51.340;8.288;2023-08-01T03:00:13;0.52;;;0.52;;
9160;SDS011;4615;51.340;8.288;2023-08-01T03:02:42;1.50;;;0.60;;
9160;SDS011;4615;51.340;8.288;2023-08-01T03:05:10;0.77;;;0.55;;
9160;SDS011;4615;51.340;8.288;2023-08-01T03:07:37;0.22;;;0.20;;
9160;SDS011;4615;51.340;8.288;2023-08-01T03:10:03;0.60;;;0.50;;
9160;SDS011;4615;51.340;8.288;2023-08-01T03:12:31;0.90;;;0.30;;
9160;SDS011;4615;51.340;8.288;2023-08-01T03:14:58;0.50;;;0.50;;
9160;SDS011;4615;51.340;8.288;2023-08-01T03:17:24;0.50;;;0.50;;
9160;SDS011;4615;51.340;8.288;2023-08-01T03:19:51;0.30;;;0.30;;
9160;SDS011;4615;51.340;8.288;2023-08-01T03:22:19;0.35;;;0.30;;
9160;SDS011;4615;51.340;8.288;2023-08-01T03:24:45;0.30;;;0.30;;
9160;SDS011;4615;51.340;8.288;2023-08-01T03:27:12;0.30;;;0.30;;
9160;SDS011;4615;51.340;8.288;2023-08-01T03:29:38;0.45;;;0.32;;
9160;SDS011;4615;51.340;8.288;2023-08-01T03:32:04;0.30;;;0.30;;
9160;SDS011;4615;51.340;8.288;2023-08-01T03:34:31;0.30;;;0.30;;
9160;SDS011;4615;51.340;8.288;2023-08-01T03:36:57;0.50;;;0.40;;
9160;SDS011;4615;51.340;8.288;2023-08-01T03:39:25;0.30;;;0.30;;
9160;SDS011;4615;51.340;8.288;2023-08-01T03:41:51;0.40;;;0.40;;
9160;SDS011;4615;51.340;8.288;2023-08-01T03:44:18;0.30;;;0.30;;
9160;SDS011;4615;51.340;8.288;2023-08-01T03:46:44;0.80;;;0.30;;
9160;SDS011;4615;51.340;8.288;2023-08-01T03:49:12;0.30;;;0.30;;
9160;SDS011;4615;51.340;8.288;2023-08-01T03:51:38;0.45;;;0.32;;
9160;SDS011;4615;51.340;8.288;2023-08-01T03:54:05;0.40;;;0.40;;
9160;SDS011;4615;51.340;8.288;2023-08-01T03:56:33;0.33;;;0.33;;
9160;SDS011;4615;51.340;8.288;2023-08-01T03:58:59;0.80;;;0.40;;
9160;SDS011;4615;51.340;8.288;2023-08-01T04:01:25;0.32;;;0.32;;
9160;SDS011;4615;51.340;8.288;2023-08-01T04:03:52;0.45;;;0.30;;
9160;SDS011;4615;51.340;8.288;2023-08-01T04:06:18;0.55;;;0.40;;
9160;SDS011;4615;51.340;8.288;2023-08-01T04:08:44;0.40;;;0.40;;
9160;SDS011;4615;51.340;8.288;2023-08-01T04:11:11;0.40;;;0.40;;
9160;SDS011;4615;51.340;8.288;2023-08-01T04:13:38;0.43;;;0.43;;
9160;SDS011;4615;51.340;8.288;2023-08-01T04:16:05;0.55;;;0.55;;
9160;SDS011;4615;51.340;8.288;2023-08-01T04:18:31;0.80;;;0.80;;
9160;SDS011;4615;51.340;8.288;2023-08-01T04:20:57;1.25;;;1.10;;
9160;SDS011;4615;51.340;8.288;2023-08-01T04:23:24;1.80;;;1.40;;
9160;SDS011;4615;51.340;8.288;2023-08-01T04:25:50;1.53;;;1.43;;
9160;SDS011;4615;51.340;8.288;2023-08-01T04:28:16;1.58;;;1.48;;
9160;SDS011;4615;51.340;8.288;2023-08-01T04:30:49;1.75;;;1.65;;
9160;SDS011;4615;51.340;8.288;2023-08-01T04:33:15;1.85;;;1.75;;
9160;SDS011;4615;51.340;8.288;2023-08-01T04:35:42;2.08;;;1.98;;
9160;SDS011;4615;51.340;8.288;2023-08-01T04:38:08;2.97;;;1.95;;
9160;SDS011;4615;51.340;8.288;2023-08-01T04:40:35;2.35;;;2.03;;
9160;SDS011;4615;51.340;8.288;2023-08-01T04:43:02;2.10;;;2.00;;
9160;SDS011;4615;51.340;8.288;2023-08-01T04:45:28;2.25;;;2.05;;
9160;SDS011;4615;51.340;8.288;2023-08-01T04:47:56;2.20;;;2.10;;
9160;SDS011;4615;51.340;8.288;2023-08-01T04:50:22;2.40;;;2.13;;
9160;SDS011;4615;51.340;8.288;2023-08-01T04:52:49;2.70;;;2.50;;
9160;SDS011;4615;51.340;8.288;2023-08-01T04:55:15;2.78;;;2.58;;
9160;SDS011;4615;51.340;8.288;2023-08-01T04:57:41;3.20;;;2.90;;
9160;SDS011;4615;51.340;8.288;2023-08-01T05:00:09;4.90;;;4.50;;
9160;SDS011;4615;51.340;8.288;2023-08-01T05:02:35;4.70;;;4.30;;
9160;SDS011;4615;51.340;8.288;2023-08-01T05:05:03;5.65;;;5.15;;
9160;SDS011;4615;51.340;8.288;2023-08-01T05:07:30;6.55;;;5.95;;
9160;SDS011;4615;51.340;8.288;2023-08-01T05:09:56;7.10;;;6.40;;
9160;SDS011;4615;51.340;8.288;2023-08-01T05:12:23;8.20;;;7.43;;
9160;SDS011;4615;51.340;8.288;2023-08-01T05:14:49;7.78;;;7.07;;
9160;SDS011;4615;51.340;8.288;2023-08-01T05:17:15;8.30;;;7.60;;
9160;SDS011;4615;51.340;8.288;2023-08-01T05:19:42;8.60;;;7.80;;
9160;SDS011;4615;51.340;8.288;2023-08-01T05:22:10;9.32;;;8.52;;
9160;SDS011;4615;51.340;8.288;2023-08-01T05:24:37;10.50;;;9.50;;
9160;SDS011;4615;51.340;8.288;2023-08-01T05:27:03;11.05;;;10.05;;
9160;SDS011;4615;51.340;8.288;2023-08-01T05:29:30;11.85;;;10.75;;
9160;SDS011;4615;51.340;8.288;2023-08-01T05:31:56;11.45;;;10.35;;
9160;SDS011;4615;51.340;8.288;2023-08-01T05:34:22;12.80;;;11.60;;
9160;SDS011;4615;51.340;8.288;2023-08-01T05:36:49;11.35;;;10.35;;
9160;SDS011;4615;51.340;8.288;2023-08-01T05:39:17;10.55;;;9.65;;
9160;SDS011;4615;51.340;8.288;2023-08-01T05:41:43;10.90;;;9.98;;
9160;SDS011;4615;51.340;8.288;2023-08-01T05:44:09;9.80;;;8.90;;
9160;SDS011;4615;51.340;8.288;2023-08-01T05:46:36;9.67;;;8.77;;
9160;SDS011;4615;51.340;8.288;2023-08-01T05:49:02;8.93;;;8.05;;
9160;SDS011;4615;51.340;8.288;2023-08-01T05:51:28;8.50;;;7.60;;
9160;SDS011;4615;51.340;8.288;2023-08-01T05:53:55;8.10;;;7.30;;
9160;SDS011;4615;51.340;8.288;2023-08-01T05:56:22;7.97;;;7.18;;
9160;SDS011;4615;51.340;8.288;2023-08-01T05:58:49;9.90;;;7.75;;
9160;SDS011;4615;51.340;8.288;2023-08-01T06:01:16;7.07;;;6.38;;
9160;SDS011;4615;51.340;8.288;2023-08-01T06:03:42;8.05;;;7.18;;
9160;SDS011;4615;51.340;8.288;2023-08-01T06:06:09;8.57;;;6.87;;
9160;SDS011;4615;51.340;8.288;2023-08-01T06:08:35;7.00;;;6.30;;
9160;SDS011;4615;51.340;8.288;2023-08-01T06:11:01;8.80;;;6.20;;
9160;SDS011;4615;51.340;8.288;2023-08-01T06:13:29;8.90;;;6.70;;
9160;SDS011;4615;51.340;8.288;2023-08-01T06:15:56;9.18;;;7.15;;
9160;SDS011;4615;51.340;8.288;2023-08-01T06:18:22;9.75;;;7.57;;
9160;SDS011;4615;51.340;8.288;2023-08-01T06:20:48;9.52;;;7.40;;
9160;SDS011;4615;51.340;8.288;2023-08-01T06:23:15;10.30;;;7.95;;
9160;SDS011;4615;51.340;8.288;2023-08-01T06:25:41;9.57;;;7.88;;
9160;SDS011;4615;51.340;8.288;2023-08-01T06:28:07;10.05;;;7.88;;
9160;SDS011;4615;51.340;8.288;2023-08-01T06:30:35;8.63;;;6.90;;
9160;SDS011;4615;51.340;8.288;2023-08-01T06:33:02;9.15;;;7.00;;
9160;SDS011;4615;51.340;8.288;2023-08-01T06:35:28;8.75;;;7.03;;
9160;SDS011;4615;51.340;8.288;2023-08-01T06:37:54;9.02;;;6.78;;
9160;SDS011;4615;51.340;8.288;2023-08-01T06:40:21;7.53;;;6.20;;
9160;SDS011;4615;51.340;8.288;2023-08-01T06:42:47;8.40;;;6.57;;
9160;SDS011;4615;51.340;8.288;2023-08-01T06:45:13;8.27;;;6.53;;
9160;SDS011;4615;51.340;8.288;2023-08-01T06:47:41;8.15;;;6.20;;
9160;SDS011;4615;51.340;8.288;2023-08-01T06:50:08;10.10;;;6.60;;
9160;SDS011;4615;51.340;8.288;2023-08-01T06:52:35;8.35;;;6.05;;
9160;SDS011;4615;51.340;8.288;2023-08-01T06:55:01;7.55;;;5.93;;
9160;SDS011;4615;51.340;8.288;2023-08-01T06:57:27;9.32;;;6.07;;
9160;SDS011;4615;51.340;8.288;2023-08-01T06:59:54;7.83;;;5.90;;
9160;SDS011;4615;51.340;8.288;2023-08-01T07:02:20;7.85;;;5.60;;
9160;SDS011;4615;51.340;8.288;2023-08-01T07:04:48;8.88;;;6.00;;
9160;SDS011;4615;51.340;8.288;2023-08-01T07:07:15;9.00;;;5.93;;
9160;SDS011;4615;51.340;8.288;2023-08-01T07:09:41;7.18;;;5.38;;
9160;SDS011;4615;51.340;8.288;2023-08-01T07:12:07;7.03;;;5.93;;
9160;SDS011;4615;51.340;8.288;2023-08-01T07:14:34;7.15;;;5.20;;
9160;SDS011;4615;51.340;8.288;2023-08-01T07:17:04;7.97;;;5.40;;
9160;SDS011;4615;51.340;8.288;2023-08-01T07:19:30;6.88;;;5.32;;
9160;SDS011;4615;51.340;8.288;2023-08-01T07:21:58;8.45;;;5.55;;
9160;SDS011;4615;51.340;8.288;2023-08-01T07:24:24;7.45;;;5.90;;
9160;SDS011;4615;51.340;8.288;2023-08-01T07:26:50;7.90;;;5.28;;
9160;SDS011;4615;51.340;8.288;2023-08-01T07:29:17;8.55;;;5.93;;
9160;SDS011;4615;51.340;8.288;2023-08-01T07:31:43;8.52;;;5.45;;
9160;SDS011;4615;51.340;8.288;2023-08-01T07:34:11;7.55;;;5.60;;
9160;SDS011;4615;51.340;8.288;2023-08-01T07:36:37;6.95;;;6.10;;
9160;SDS011;4615;51.340;8.288;2023-08-01T07:39:08;7.43;;;5.65;;
9160;SDS011;4615;51.340;8.288;2023-08-01T07:41:35;8.52;;;6.35;;
9160;SDS011;4615;51.340;8.288;2023-08-01T07:44:01;9.23;;;6.28;;
9160;SDS011;4615;51.340;8.288;2023-08-01T07:46:28;8.38;;;6.05;;
9160;SDS011;4615;51.340;8.288;2023-08-01T07:48:54;8.15;;;5.88;;
9160;SDS011;4615;51.340;8.288;2023-08-01T07:51:21;6.70;;;5.30;;
9160;SDS011;4615;51.340;8.288;2023-08-01T07:53:47;7.80;;;6.03;;
9160;SDS011;4615;51.340;8.288;2023-08-01T07:56:16;7.32;;;5.57;;
9160;SDS011;4615;51.340;8.288;2023-08-01T07:58:42;9.85;;;6.30;;
9160;SDS011;4615;51.340;8.288;2023-08-01T08:01:09;8.02;;;5.72;;
9160;SDS011;4615;51.340;8.288;2023-08-01T08:03:35;9.00;;;6.33;;
9160;SDS011;4615;51.340;8.288;2023-08-01T08:06:01;9.85;;;6.10;;
9160;SDS011;4615;51.340;8.288;2023-08-01T08:08:29;10.20;;;6.20;;
9160;SDS011;4615;51.340;8.288;2023-08-01T08:10:55;8.02;;;5.78;;
9160;SDS011;4615;51.340;8.288;2023-08-01T08:13:23;6.32;;;5.50;;
9160;SDS011;4615;51.340;8.288;2023-08-01T08:15:50;8.27;;;6.20;;
9160;SDS011;4615;51.340;8.288;2023-08-01T08:18:16;6.90;;;6.05;;
9160;SDS011;4615;51.340;8.288;2023-08-01T08:20:44;6.97;;;5.87;;
9160;SDS011;4615;51.340;8.288;2023-08-01T08:23:10;7.15;;;6.40;;
9160;SDS011;4615;51.340;8.288;2023-08-01T08:25:39;7.47;;;6.07;;
9160;SDS011;4615;51.340;8.288;2023-08-01T08:28:05;7.60;;;6.15;;
9160;SDS011;4615;51.340;8.288;2023-08-01T08:30:33;7.70;;;5.90;;
9160;SDS011;4615;51.340;8.288;2023-08-01T08:32:59;8.97;;;5.87;;
9160;SDS011;4615;51.340;8.288;2023-08-01T08:35:29;8.90;;;5.85;;
9160;SDS011;4615;51.340;8.288;2023-08-01T08:37:55;6.97;;;5.73;;
9160;SDS011;4615;51.340;8.288;2023-08-01T08:40:22;6.88;;;5.35;;
9160;SDS011;4615;51.340;8.288;2023-08-01T08:42:48;7.03;;;5.63;;
9160;SDS011;4615;51.340;8.288;2023-08-01T08:45:16;7.57;;;5.68;;
9160;SDS011;4615;51.340;8.288;2023-08-01T08:47:45;8.07;;;5.47;;
9160;SDS011;4615;51.340;8.288;2023-08-01T08:50:14;9.88;;;5.68;;
9160;SDS011;4615;51.340;8.288;2023-08-01T08:52:41;6.95;;;5.30;;
9160;SDS011;4615;51.340;8.288;2023-08-01T08:55:08;6.60;;;5.05;;
9160;SDS011;4615;51.340;8.288;2023-08-01T08:57:34;6.18;;;4.97;;
9160;SDS011;4615;51.340;8.288;2023-08-01T09:00:00;7.82;;;5.28;;
9160;SDS011;4615;51.340;8.288;2023-08-01T09:02:29;7.40;;;5.22;;
9160;SDS011;4615;51.340;8.288;2023-08-01T09:04:58;7.07;;;5.20;;
9160;SDS011;4615;51.340;8.288;2023-08-01T09:07:25;7.37;;;5.47;;
9160;SDS011;4615;51.340;8.288;2023-08-01T09:09:53;8.55;;;5.40;;
9160;SDS011;4615;51.340;8.288;2023-08-01T09:12:20;8.13;;;5.18;;
9160;SDS011;4615;51.340;8.288;2023-08-01T09:14:46;7.18;;;5.45;;
9160;SDS011;4615;51.340;8.288;2023-08-01T09:17:14;7.25;;;5.13;;
9160;SDS011;4615;51.340;8.288;2023-08-01T09:19:43;6.88;;;4.95;;
9160;SDS011;4615;51.340;8.288;2023-08-01T09:22:11;5.63;;;4.50;;
9160;SDS011;4615;51.340;8.288;2023-08-01T09:24:38;6.38;;;4.40;;
9160;SDS011;4615;51.340;8.288;2023-08-01T09:27:05;7.73;;;4.43;;
9160;SDS011;4615;51.340;8.288;2023-08-01T09:29:34;5.82;;;4.60;;
9160;SDS011;4615;51.340;8.288;2023-08-01T09:32:10;7.23;;;4.60;;
9160;SDS011;4615;51.340;8.288;2023-08-01T09:34:37;6.88;;;4.78;;
9160;SDS011;4615;51.340;8.288;2023-08-01T09:37:04;6.65;;;4.85;;
9160;SDS011;4615;51.340;8.288;2023-08-01T09:39:31;6.25;;;4.82;;
9160;SDS011;4615;51.340;8.288;2023-08-01T09:42:01;7.15;;;4.72;;
9160;SDS011;4615;51.340;8.288;2023-08-01T09:44:28;6.97;;;4.70;;
9160;SDS011;4615;51.340;8.288;2023-08-01T09:46:55;5.27;;;4.30;;
9160;SDS011;4615;51.340;8.288;2023-08-01T09:49:22;6.93;;;4.22;;
9160;SDS011;4615;51.340;8.288;2023-08-01T09:51:48;6.65;;;4.15;;
9160;SDS011;4615;51.340;8.288;2023-08-01T09:54:15;6.30;;;4.07;;
9160;SDS011;4615;51.340;8.288;2023-08-01T09:56:43;5.63;;;4.20;;
9160;SDS011;4615;51.340;8.288;2023-08-01T09:59:10;4.50;;;3.92;;
9160;SDS011;4615;51.340;8.288;2023-08-01T10:01:36;6.60;;;3.97;;
9160;SDS011;4615;51.340;8.288;2023-08-01T10:04:04;5.88;;;4.03;;
9160;SDS011;4615;51.340;8.288;2023-08-01T10:06:33;6.18;;;3.80;;
9160;SDS011;4615;51.340;8.288;2023-08-01T10:08:59;4.15;;;3.50;;
9160;SDS011;4615;51.340;8.288;2023-08-01T10:11:26;5.13;;;3.78;;
9160;SDS011;4615;51.340;8.288;2023-08-01T10:13:56;5.22;;;3.17;;
9160;SDS011;4615;51.340;8.288;2023-08-01T10:16:22;5.00;;;3.20;;
9160;SDS011;4615;51.340;8.288;2023-08-01T10:18:49;3.63;;;3.05;;
9160;SDS011;4615;51.340;8.288;2023-08-01T10:21:17;3.97;;;3.20;;
9160;SDS011;4615;51.340;8.288;2023-08-01T10:23:46;4.00;;;3.22;;
9160;SDS011;4615;51.340;8.288;2023-08-01T10:26:12;3.65;;;3.13;;
9160;SDS011;4615;51.340;8.288;2023-08-01T10:28:39;5.03;;;3.20;;
9160;SDS011;4615;51.340;8.288;2023-08-01T10:31:11;4.95;;;2.88;;
9160;SDS011;4615;51.340;8.288;2023-08-01T10:33:37;3.60;;;2.80;;
9160;SDS011;4615;51.340;8.288;2023-08-01T10:38:49;3.63;;;2.42;;
9160;SDS011;4615;51.340;8.288;2023-08-01T10:41:19;3.80;;;2.50;;
9160;SDS011;4615;51.340;8.288;2023-08-01T10:43:45;3.17;;;2.88;;
9160;SDS011;4615;51.340;8.288;2023-08-01T10:46:13;4.25;;;3.00;;
9160;SDS011;4615;51.340;8.288;2023-08-01T10:48:47;4.05;;;3.10;;
9160;SDS011;4615;51.340;8.288;2023-08-01T10:51:13;4.25;;;2.70;;
9160;SDS011;4615;51.340;8.288;2023-08-01T10:53:40;4.07;;;2.95;;
9160;SDS011;4615;51.340;8.288;2023-08-01T10:56:06;3.60;;;3.08;;
9160;SDS011;4615;51.340;8.288;2023-08-01T10:58:33;3.72;;;2.72;;
9160;SDS011;4615;51.340;8.288;2023-08-01T11:01:00;3.35;;;2.80;;
9160;SDS011;4615;51.340;8.288;2023-08-01T11:03:35;3.85;;;2.90;;
9160;SDS011;4615;51.340;8.288;2023-08-01T11:06:01;4.25;;;2.83;;
9160;SDS011;4615;51.340;8.288;2023-08-01T11:08:33;3.40;;;2.60;;
9160;SDS011;4615;51.340;8.288;2023-08-01T11:11:00;4.13;;;2.90;;
9160;SDS011;4615;51.340;8.288;2023-08-01T11:13:26;4.72;;;2.90;;
9160;SDS011;4615;51.340;8.288;2023-08-01T11:15:52;5.28;;;2.90;;
9160;SDS011;4615;51.340;8.288;2023-08-01T11:18:21;4.60;;;3.00;;
9160;SDS011;4615;51.340;8.288;2023-08-01T11:20:49;4.00;;;2.92;;
9160;SDS011;4615;51.340;8.288;2023-08-01T11:23:15;4.97;;;3.15;;
9160;SDS011;4615;51.340;8.288;2023-08-01T11:25:42;5.07;;;3.27;;
9160;SDS011;4615;51.340;8.288;2023-08-01T11:28:11;4.57;;;3.08;;
9160;SDS011;4615;51.340;8.288;2023-08-01T11:30:38;3.10;;;2.80;;
9160;SDS011;4615;51.340;8.288;2023-08-01T11:33:13;4.00;;;2.80;;
9160;SDS011;4615;51.340;8.288;2023-08-01T11:35:39;3.72;;;2.70;;
9160;SDS011;4615;51.340;8.288;2023-08-01T11:38:07;4.32;;;2.80;;
9160;SDS011;4615;51.340;8.288;2023-08-01T11:40:33;4.00;;;2.80;;
9160;SDS011;4615;51.340;8.288;2023-08-01T11:43:01;4.28;;;2.65;;
9160;SDS011;4615;51.340;8.288;2023-08-01T11:45:29;5.38;;;2.85;;
9160;SDS011;4615;51.340;8.288;2023-08-01T11:47:56;6.15;;;3.05;;
9160;SDS011;4615;51.340;8.288;2023-08-01T11:50:22;4.45;;;2.80;;
9160;SDS011;4615;51.340;8.288;2023-08-01T11:52:49;4.82;;;3.00;;
9160;SDS011;4615;51.340;8.288;2023-08-01T11:55:24;4.43;;;2.80;;
9160;SDS011;4615;51.340;8.288;2023-08-01T11:57:52;4.43;;;2.90;;
9160;SDS011;4615;51.340;8.288;2023-08-01T12:00:20;3.10;;;2.70;;
9160;SDS011;4615;51.340;8.288;2023-08-01T12:02:47;3.00;;;2.70;;
9160;SDS011;4615;51.340;8.288;2023-08-01T12:05:20;4.20;;;2.95;;
9160;SDS011;4615;51.340;8.288;2023-08-01T12:07:46;4.65;;;2.45;;
9160;SDS011;4615;51.340;8.288;2023-08-01T12:10:13;3.28;;;2.25;;
9160;SDS011;4615;51.340;8.288;2023-08-01T12:12:44;3.30;;;2.20;;
9160;SDS011;4615;51.340;8.288;2023-08-01T12:15:11;3.00;;;2.35;;
9160;SDS011;4615;51.340;8.288;2023-08-01T12:17:37;3.33;;;2.60;;
9160;SDS011;4615;51.340;8.288;2023-08-01T12:20:04;5.30;;;2.65;;
9160;SDS011;4615;51.340;8.288;2023-08-01T12:22:30;3.78;;;2.53;;
9160;SDS011;4615;51.340;8.288;2023-08-01T12:24:57;5.50;;;3.20;;
9160;SDS011;4615;51.340;8.288;2023-08-01T12:27:23;4.70;;;3.10;;
9160;SDS011;4615;51.340;8.288;2023-08-01T12:29:51;5.68;;;3.30;;
9160;SDS011;4615;51.340;8.288;2023-08-01T12:32:17;5.05;;;3.10;;
9160;SDS011;4615;51.340;8.288;2023-08-01T12:34:44;5.88;;;3.40;;
9160;SDS011;4615;51.340;8.288;2023-08-01T12:37:10;3.80;;;3.22;;
9160;SDS011;4615;51.340;8.288;2023-08-01T12:39:36;4.43;;;3.55;;
9160;SDS011;4615;51.340;8.288;2023-08-01T12:42:03;4.57;;;2.95;;
9160;SDS011;4615;51.340;8.288;2023-08-01T12:44:29;3.70;;;2.53;;
9160;SDS011;4615;51.340;8.288;2023-08-01T12:46:57;3.40;;;2.58;;
9160;SDS011;4615;51.340;8.288;2023-08-01T12:49:24;4.40;;;2.63;;
9160;SDS011;4615;51.340;8.288;2023-08-01T12:51:50;3.75;;;2.65;;
9160;SDS011;4615;51.340;8.288;2023-08-01T12:54:16;3.97;;;2.75;;
9160;SDS011;4615;51.340;8.288;2023-08-01T12:56:43;4.72;;;3.05;;
9160;SDS011;4615;51.340;8.288;2023-08-01T12:59:09;5.78;;;3.08;;
9160;SDS011;4615;51.340;8.288;2023-08-01T13:01:38;4.20;;;2.90;;
9160;SDS011;4615;51.340;8.288;2023-08-01T13:04:06;5.03;;;3.22;;
9160;SDS011;4615;51.340;8.288;2023-08-01T13:06:32;6.18;;;3.00;;
9160;SDS011;4615;51.340;8.288;2023-08-01T13:08:59;4.25;;;3.00;;
9160;SDS011;4615;51.340;8.288;2023-08-01T13:11:27;4.93;;;3.55;;
9160;SDS011;4615;51.340;8.288;2023-08-01T13:13:54;4.67;;;3.30;;
9160;SDS011;4615;51.340;8.288;2023-08-01T13:16:20;4.28;;;3.40;;
9160;SDS011;4615;51.340;8.288;2023-08-01T13:18:46;4.95;;;3.70;;
9160;SDS011;4615;51.340;8.288;2023-08-01T13:21:14;6.25;;;4.10;;
9160;SDS011;4615;51.340;8.288;2023-08-01T13:23:41;5.70;;;4.10;;
9160;SDS011;4615;51.340;8.288;2023-08-01T13:26:07;5.95;;;4.32;;
9160;SDS011;4615;51.340;8.288;2023-08-01T13:28:33;4.38;;;3.97;;
9160;SDS011;4615;51.340;8.288;2023-08-01T13:31:00;6.90;;;4.80;;
9160;SDS011;4615;51.340;8.288;2023-08-01T13:33:26;4.83;;;3.93;;
9160;SDS011;4615;51.340;8.288;2023-08-01T13:35:52;5.35;;;4.13;;
9160;SDS011;4615;51.340;8.288;2023-08-01T13:38:21;4.83;;;3.23;;
9160;SDS011;4615;51.340;8.288;2023-08-01T13:40:48;3.95;;;2.85;;
9160;SDS011;4615;51.340;8.288;2023-08-01T13:43:14;3.00;;;2.70;;
9160;SDS011;4615;51.340;8.288;2023-08-01T13:45:41;3.10;;;2.72;;
9160;SDS011;4615;51.340;8.288;2023-08-01T13:48:07;3.40;;;2.80;;
9160;SDS011;4615;51.340;8.288;2023-08-01T13:50:34;2.67;;;2.40;;
9160;SDS011;4615;51.340;8.288;2023-08-01T13:53:00;3.55;;;2.80;;
9160;SDS011;4615;51.340;8.288;2023-08-01T13:55:28;3.20;;;2.72;;
9160;SDS011;4615;51.340;8.288;2023-08-01T13:57:54;3.75;;;2.30;;
9160;SDS011;4615;51.340;8.288;2023-08-01T14:00:20;3.33;;;2.45;;
9160;SDS011;4615;51.340;8.288;2023-08-01T14:02:48;2.85;;;2.50;;
9160;SDS011;4615;51.340;8.288;2023-08-01T14:05:15;3.03;;;2.20;;
9160;SDS011;4615;51.340;8.288;2023-08-01T14:07:41;4.70;;;3.08;;
9160;SDS011;4615;51.340;8.288;2023-08-01T14:10:08;3.67;;;2.60;;
9160;SDS011;4615;51.340;8.288;2023-08-01T14:12:35;6.38;;;2.38;;
9160;SDS011;4615;51.340;8.288;2023-08-01T14:15:02;3.83;;;2.22;;
9160;SDS011;4615;51.340;8.288;2023-08-01T14:17:29;3.38;;;2.30;;
9160;SDS011;4615;51.340;8.288;2023-08-01T14:19:55;3.80;;;2.35;;
9160;SDS011;4615;51.340;8.288;2023-08-01T14:22:21;3.42;;;2.50;;
9160;SDS011;4615;51.340;8.288;2023-08-01T14:24:48;3.00;;;2.05;;
9160;SDS011;4615;51.340;8.288;2023-08-01T14:27:15;3.20;;;1.90;;
9160;SDS011;4615;51.340;8.288;2023-08-01T14:29:43;2.35;;;2.00;;
9160;SDS011;4615;51.340;8.288;2023-08-01T14:32:09;3.13;;;2.05;;
9160;SDS011;4615;51.340;8.288;2023-08-01T14:34:35;4.45;;;2.15;;
9160;SDS011;4615;51.340;8.288;2023-08-01T14:37:03;4.10;;;1.90;;
9160;SDS011;4615;51.340;8.288;2023-08-01T14:39:29;3.67;;;1.90;;
9160;SDS011;4615;51.340;8.288;2023-08-01T14:41:56;3.27;;;2.00;;
9160;SDS011;4615;51.340;8.288;2023-08-01T14:44:22;2.97;;;2.00;;
9160;SDS011;4615;51.340;8.288;2023-08-01T14:46:50;2.95;;;2.03;;
9160;SDS011;4615;51.340;8.288;2023-08-01T14:49:19;2.72;;;1.85;;
9160;SDS011;4615;51.340;8.288;2023-08-01T14:51:46;3.63;;;1.80;;
9160;SDS011;4615;51.340;8.288;2023-08-01T14:54:12;3.55;;;2.10;;
9160;SDS011;4615;51.340;8.288;2023-08-01T14:56:39;2.92;;;1.92;;
9160;SDS011;4615;51.340;8.288;2023-08-01T14:59:05;4.45;;;2.10;;
9160;SDS011;4615;51.340;8.288;2023-08-01T15:01:31;3.67;;;2.00;;
9160;SDS011;4615;51.340;8.288;2023-08-01T15:04:01;4.22;;;2.05;;
9160;SDS011;4615;51.340;8.288;2023-08-01T15:06:27;2.90;;;1.93;;
9160;SDS011;4615;51.340;8.288;2023-08-01T15:08:54;4.10;;;2.00;;
9160;SDS011;4615;51.340;8.288;2023-08-01T15:11:20;3.45;;;2.20;;
9160;SDS011;4615;51.340;8.288;2023-08-01T15:13:47;4.03;;;2.07;;
9160;SDS011;4615;51.340;8.288;2023-08-01T15:16:13;2.58;;;1.95;;